Language selection

Features

My Weather Profile Weather Topics  | 

Queen Charlotte Sound - eastern half: Past 24 Hour Conditions

 

West Sea Otter - 46204

10:00 PM PST 14 November 2019Buoy position: 51.23N 128.46W
Disclaimer

This table is a summary of hourly weather conditions for the past 24 hours.
Please note that these observations might not always be representative of weather conditions over their associated marine area.

Date / Time
(PST)
Wind(knots) Wave height(m) Wave period(s) Pressure(kPa) Air tempC) Water tempC)
14 November 2019
22:00 SE 17 gust 23 4.2 13.0 100.7 -2 10
21:00 N/A N/A N/A N/A N/A N/A
20:00 SE 23 gust 29 4.2 15.0 100.7 -2 10
19:00 SE 23 gust 31 4.7 15.0 100.7 10 10
18:00 SE 23 gust 31 4.2 15.0 100.7 10 10
17:00 SE 25 gust 31 4.6 16.0 100.7 -1 10
16:00 SE 25 gust 33 4.6 15.0 100.7 -1 10
15:00 SE 25 gust 31 4.4 15.0 100.7 7 10
14:00 SE 25 gust 33 4.6 15.0 100.8 10 10
13:00 SE 23 gust 29 4.3 15.0 100.8 10 10
12:00 SE 22 gust 27 4.8 16.0 100.8 10 10
11:00 SE 22 gust 27 4.2 17.0 100.9 9 10
10:00 SE 19 gust 25 4.0 16.0 100.8 10 10
9:00 SE 19 gust 25 3.8 9.0 100.8 10 10
8:00 SE 19 gust 23 3.5 8.0 100.8 10 10
7:00 SE 23 gust 27 3.5 9.0 100.7 11 10
6:00 SE 22 gust 27 3.2 9.0 100.7 -1 10
5:00 SE 23 gust 29 2.8 6.0 100.7 -2 10
4:00 SE 23 gust 27 2.7 8.0 100.8 -1 10
3:00 SE 23 gust 27 2.5 8.0 100.8 -1 10
2:00 SE 22 gust 27 2.4 9.0 100.9 -1 10
1:00 SE 19 gust 23 2.2 6.0 101.0 -2 10
0:00 SE 22 gust 25 2.2 6.0 101.0 -2 10
13 November 2019
23:00 SE 22 gust 25 2.2 5.0 101.1 -2 10
22:00 SE 22 gust 25 2.2 6.0 101.1 -2 10

Zoom-in to make a selection

Map of Pacific - North Coast marine weather areas Middle Nomad - 46004 South Nomad - 46036 Dixon Entrance Central - 46145 South Moresby - 46147 Nanakwa Shoal - 46181 North Hecate Strait - 46183 North Nomad - 46184 South Hecate Strait - 46185 West Sea Otter - 46204 West Dixon Entrance - 46205 East Dellwood - 46207 West Moresby - 46208 Sartine Island Cape St.James Kindakun Rocks Langara Island Masset Municipal Airport Rose Spit Sandspit Airport Bella Bella Airport Bella Coola Airport Bonilla Island Cathedral Point Cumshewa Island Grey Islet Holland Rock Lucy Islands Lightstation Prince Rupert Airport
Legend:
buoy Buoy
land station Land Station

Pacific - North Coast Area

Another Region

What we are doing

Date modified: